Time;durP1;ratioP1;P1;durP2;ratioP2;P2;SDS_P1;SDS_P2;PMS_P1;PMS_P2;Temp;Humidity;BMP_temperature;BMP_pressure;BME280_temperature;BME280_humidity;BME280_pressure;Samples;Min_cycle;Max_cycle;Signal;HPM_P1;HPM_P2
2021/07/07 00:00:39;;;;;;;2.50;2.30;;;21.30;1.00;;;;;;5083245;28;20434;-82
2021/07/07 00:03:06;;;;;;;3.37;1.77;;;21.20;1.00;;;;;;5075498;28;21264;-84
2021/07/07 00:05:32;;;;;;;2.80;1.83;;;21.10;1.00;;;;;;5069659;28;20468;-85
2021/07/07 00:07:59;;;;;;;2.40;2.20;;;21.00;1.00;;;;;;5074634;28;20430;-83
2021/07/07 00:10:28;;;;;;;2.43;2.07;;;20.80;1.00;;;;;;5087830;28;20455;-83
2021/07/07 00:12:58;;;;;;;2.13;1.93;;;20.70;1.00;;;;;;5091520;28;20412;-84
2021/07/07 00:15:25;;;;;;;2.80;2.00;;;20.60;1.00;;;;;;5081208;28;21490;-84
2021/07/07 00:17:52;;;;;;;2.40;2.20;;;20.50;1.00;;;;;;5085198;28;20424;-86
2021/07/07 00:20:20;;;;;;;3.30;2.10;;;20.30;1.00;;;;;;5084674;28;20412;-82
2021/07/07 00:22:46;;;;;;;2.30;2.10;;;20.20;1.00;;;;;;5091245;28;21724;-84
2021/07/07 00:25:14;;;;;;;2.10;1.93;;;20.10;1.00;;;;;;5091175;28;20941;-83
2021/07/07 00:27:42;;;;;;;4.13;2.37;;;19.90;1.00;;;;;;5086039;28;20495;-84
2021/07/07 00:30:11;;;;;;;2.50;2.23;;;19.80;1.00;;;;;;5085820;28;20435;-86
2021/07/07 00:32:37;;;;;;;3.00;2.20;;;19.70;1.00;;;;;;5084056;28;20430;-84
2021/07/07 00:35:06;;;;;;;3.20;2.57;;;19.60;1.00;;;;;;5093861;27;20535;-84
2021/07/07 00:37:32;;;;;;;2.80;2.60;;;19.60;1.00;;;;;;5103098;27;20393;-82
2021/07/07 00:39:59;;;;;;;3.17;2.43;;;19.50;1.00;;;;;;5109331;27;20415;-82
2021/07/07 00:42:26;;;;;;;2.80;2.60;;;19.50;1.00;;;;;;5105189;28;20626;-83
2021/07/07 00:44:54;;;;;;;2.67;2.00;;;19.50;1.00;;;;;;5106152;27;20412;-82
2021/07/07 00:47:20;;;;;;;2.63;2.43;;;19.50;1.00;;;;;;5107974;27;20462;-83
2021/07/07 00:49:50;;;;;;;2.60;2.40;;;19.40;1.00;;;;;;5101920;27;20510;-84
2021/07/07 00:52:19;;;;;;;3.80;2.23;;;19.40;1.00;;;;;;5101381;27;20415;-83
2021/07/07 00:54:46;;;;;;;2.70;2.50;;;19.40;1.00;;;;;;5106417;27;20438;-84
2021/07/07 00:57:15;;;;;;;2.90;2.60;;;19.40;1.00;;;;;;5099811;28;20463;-83
2021/07/07 00:59:42;;;;;;;2.40;2.17;;;19.40;1.00;;;;;;5087033;28;20993;-84
2021/07/07 01:02:11;;;;;;;2.40;2.20;;;19.40;1.00;;;;;;5093917;27;21401;-82
2021/07/07 01:04:38;;;;;;;2.93;2.50;;;19.30;1.00;;;;;;5082349;28;20416;-84
2021/07/07 01:07:05;;;;;;;3.87;2.63;;;19.30;1.00;;;;;;5085681;28;20470;-83
2021/07/07 01:09:31;;;;;;;3.47;2.27;;;19.30;1.00;;;;;;5070895;28;20482;-84
2021/07/07 01:11:58;;;;;;;2.60;2.40;;;19.30;1.00;;;;;;5078980;28;20448;-86
2021/07/07 01:14:25;;;;;;;2.90;2.30;;;19.30;1.00;;;;;;5074339;28;20470;-85
2021/07/07 01:16:52;;;;;;;4.57;2.77;;;19.30;1.00;;;;;;5076129;28;20487;-83
2021/07/07 01:19:20;;;;;;;2.70;2.40;;;19.30;1.00;;;;;;5083403;28;20448;-83
2021/07/07 01:21:49;;;;;;;3.27;2.53;;;19.30;1.00;;;;;;5100696;28;20431;-83
2021/07/07 01:24:18;;;;;;;2.73;2.50;;;19.20;1.00;;;;;;5098205;28;20445;-85
2021/07/07 01:26:45;;;;;;;5.33;2.63;;;19.30;1.00;;;;;;5094225;28;20483;-84
2021/07/07 01:29:12;;;;;;;4.23;2.47;;;19.20;1.00;;;;;;5096134;28;20439;-84
2021/07/07 01:31:40;;;;;;;4.07;2.67;;;19.30;1.00;;;;;;5095790;28;20424;-83
2021/07/07 01:34:07;;;;;;;2.40;2.20;;;19.30;1.00;;;;;;5081394;28;20446;-85
2021/07/07 01:36:34;;;;;;;3.17;2.50;;;19.30;1.00;;;;;;5083728;28;21336;-85
2021/07/07 01:39:04;;;;;;;2.70;2.50;;;19.30;1.00;;;;;;5073825;28;20463;-84
2021/07/07 01:41:31;;;;;;;4.80;3.07;;;19.30;1.00;;;;;;5083714;28;21181;-85
2021/07/07 01:43:58;;;;;;;2.43;2.23;;;19.30;1.00;;;;;;5074913;28;20506;-85
2021/07/07 01:46:25;;;;;;;3.30;3.00;;;19.30;1.00;;;;;;5078494;28;20496;-84
2021/07/07 01:48:53;;;;;;;4.90;2.53;;;19.30;1.00;;;;;;5073387;28;20443;-86
2021/07/07 01:51:22;;;;;;;3.30;2.30;;;19.30;1.00;;;;;;5078615;28;20522;-84
2021/07/07 01:53:49;;;;;;;3.43;2.47;;;19.30;1.00;;;;;;5084654;28;20468;-83
2021/07/07 01:56:17;;;;;;;3.40;2.93;;;19.30;1.00;;;;;;5086398;28;20484;-85
2021/07/07 01:58:44;;;;;;;4.10;2.60;;;19.30;1.00;;;;;;5077062;28;21416;-85
2021/07/07 02:01:11;;;;;;;2.80;2.57;;;19.30;1.00;;;;;;5075517;28;20475;-85
2021/07/07 02:03:38;;;;;;;5.20;2.83;;;19.30;1.00;;;;;;5074766;28;20657;-85
2021/07/07 02:06:07;;;;;;;3.80;3.50;;;19.30;1.00;;;;;;5078857;28;20496;-84
2021/07/07 02:08:34;;;;;;;4.17;3.10;;;19.20;1.00;;;;;;5081883;28;20499;-85
2021/07/07 02:11:01;;;;;;;3.93;3.07;;;19.20;1.00;;;;;;5073754;28;20440;-85
2021/07/07 02:13:30;;;;;;;2.90;2.70;;;19.20;1.00;;;;;;5074752;28;21012;-85
2021/07/07 02:15:57;;;;;;;6.53;2.93;;;19.20;1.00;;;;;;5087408;28;20416;-85
2021/07/07 02:18:24;;;;;;;3.80;2.83;;;19.20;1.00;;;;;;5075463;28;20466;-84
2021/07/07 02:20:51;;;;;;;3.17;2.87;;;19.10;1.00;;;;;;5078132;28;20969;-84
2021/07/07 02:23:19;;;;;;;2.67;2.47;;;19.10;1.00;;;;;;5075856;28;20567;-83
2021/07/07 02:25:46;;;;;;;5.17;3.30;;;19.10;1.00;;;;;;5072629;28;20527;-84
2021/07/07 02:28:14;;;;;;;5.33;3.30;;;19.00;1.00;;;;;;5071886;28;20604;-83
2021/07/07 02:30:44;;;;;;;3.30;3.00;;;19.00;1.00;;;;;;5080193;28;20466;-84
2021/07/07 02:33:12;;;;;;;3.87;3.00;;;19.00;1.00;;;;;;5073755;28;20447;-84
2021/07/07 02:35:42;;;;;;;3.80;3.50;;;19.00;1.00;;;;;;5076582;28;21086;-85
2021/07/07 02:38:10;;;;;;;3.50;3.20;;;19.00;1.00;;;;;;5070695;28;20545;-84
2021/07/07 02:40:38;;;;;;;4.57;3.13;;;18.90;1.00;;;;;;5073776;28;20469;-86
2021/07/07 02:43:06;;;;;;;3.73;3.20;;;18.90;1.00;;;;;;5070000;28;20500;-86
2021/07/07 02:45:34;;;;;;;4.23;3.83;;;18.90;1.00;;;;;;5078248;28;20452;-84
2021/07/07 02:48:03;;;;;;;5.10;3.87;;;18.90;1.00;;;;;;5068147;28;20582;-85
2021/07/07 02:50:30;;;;;;;6.13;4.13;;;18.90;1.00;;;;;;5080173;28;20522;-85
2021/07/07 02:52:57;;;;;;;4.87;4.37;;;18.90;1.00;;;;;;5076504;28;20419;-85
2021/07/07 02:55:25;;;;;;;4.40;4.00;;;18.90;1.00;;;;;;5072242;28;20536;-85
2021/07/07 02:57:58;;;;;;;5.03;4.53;;;18.90;1.00;;;;;;5079948;28;20471;-85
2021/07/07 03:00:30;;;;;;;4.97;4.10;;;18.80;1.00;;;;;;5079158;28;20412;-85
2021/07/07 03:02:58;;;;;;;6.03;5.40;;;18.80;1.00;;;;;;5095019;28;21350;-86
2021/07/07 03:05:27;;;;;;;5.73;4.60;;;18.80;1.00;;;;;;5077343;27;20531;-86
2021/07/07 03:07:54;;;;;;;4.87;4.47;;;18.80;1.00;;;;;;5079069;28;20438;-85
2021/07/07 03:10:20;;;;;;;4.80;4.30;;;18.80;1.00;;;;;;5079121;28;20601;-85
2021/07/07 03:12:47;;;;;;;7.57;4.57;;;18.70;1.00;;;;;;5081783;28;20452;-85
2021/07/07 03:15:15;;;;;;;5.00;4.57;;;18.70;1.00;;;;;;5075082;28;21189;-85
2021/07/07 03:17:43;;;;;;;4.80;4.30;;;18.70;1.00;;;;;;5070604;28;20532;-84
2021/07/07 03:20:11;;;;;;;7.83;5.37;;;18.80;1.00;;;;;;5077774;28;20522;-85
2021/07/07 03:22:40;;;;;;;5.60;5.10;;;18.70;1.00;;;;;;5079232;28;20477;-85
2021/07/07 03:25:08;;;;;;;5.87;5.37;;;18.80;1.00;;;;;;5073651;28;20446;-85
2021/07/07 03:27:35;;;;;;;5.97;5.47;;;18.80;1.00;;;;;;5072193;28;20452;-86
2021/07/07 03:30:02;;;;;;;5.10;4.40;;;18.70;1.00;;;;;;5079892;28;20468;-85
2021/07/07 03:32:29;;;;;;;6.43;4.60;;;18.70;1.00;;;;;;5070951;28;20436;-86
2021/07/07 03:34:55;;;;;;;6.73;6.13;;;18.60;1.00;;;;;;5080955;28;20518;-85
2021/07/07 03:37:22;;;;;;;6.03;5.20;;;18.60;1.00;;;;;;5085116;28;20434;-85
2021/07/07 03:39:52;;;;;;;5.97;5.47;;;18.60;1.00;;;;;;5082308;28;20451;-87
2021/07/07 03:42:20;;;;;;;6.90;6.17;;;18.60;1.00;;;;;;5071934;28;20451;-86
2021/07/07 03:44:47;;;;;;;6.23;5.73;;;18.60;1.00;;;;;;5074617;28;20424;-86
2021/07/07 03:47:14;;;;;;;5.00;4.60;;;18.60;1.00;;;;;;5076532;28;20495;-86
2021/07/07 03:49:40;;;;;;;5.77;5.27;;;18.60;1.00;;;;;;5078657;28;20464;-84
2021/07/07 03:52:08;;;;;;;5.27;4.87;;;18.60;1.00;;;;;;5076813;28;20460;-85
2021/07/07 03:54:35;;;;;;;5.63;4.70;;;18.60;1.00;;;;;;5085330;28;20485;-85
2021/07/07 03:57:04;;;;;;;6.10;4.80;;;18.60;1.00;;;;;;5076610;28;20447;-86
2021/07/07 03:59:31;;;;;;;4.47;4.17;;;18.60;1.00;;;;;;5077652;28;20459;-86
2021/07/07 04:01:58;;;;;;;6.13;5.07;;;18.60;1.00;;;;;;5079885;28;21279;-85
2021/07/07 04:04:25;;;;;;;5.90;5.40;;;18.50;1.00;;;;;;5074931;28;20432;-85
2021/07/07 04:06:57;;;;;;;5.30;4.90;;;18.60;1.00;;;;;;5078271;28;20485;-86
2021/07/07 04:09:24;;;;;;;8.10;5.50;;;18.50;1.00;;;;;;5076675;28;20416;-85
2021/07/07 04:11:51;;;;;;;7.50;6.70;;;18.50;1.00;;;;;;5080388;28;20462;-86
2021/07/07 04:14:23;;;;;;;7.93;7.13;;;18.50;1.00;;;;;;5075844;28;20416;-85
2021/07/07 04:16:51;;;;;;;6.20;5.53;;;18.60;1.00;;;;;;5086102;28;20539;-85
2021/07/07 04:19:18;;;;;;;7.30;6.60;;;18.50;1.00;;;;;;5074394;28;21215;-86
2021/07/07 04:21:45;;;;;;;8.40;7.53;;;18.50;1.00;;;;;;5082270;28;20461;-85
2021/07/07 04:24:12;;;;;;;9.90;8.10;;;18.60;1.00;;;;;;5095619;28;20468;-86
2021/07/07 04:26:39;;;;;;;6.80;6.17;;;18.60;1.00;;;;;;5099377;27;20450;-86
2021/07/07 04:29:06;;;;;;;10.10;9.10;;;18.60;1.00;;;;;;5104116;27;20451;-86
2021/07/07 04:31:36;;;;;;;7.53;6.83;;;18.60;1.00;;;;;;5096304;28;20442;-86
2021/07/07 04:34:05;;;;;;;7.77;7.00;;;18.70;1.00;;;;;;5097057;27;20422;-86
2021/07/07 04:36:32;;;;;;;9.17;8.30;;;18.70;1.00;;;;;;5094987;28;20480;-85
2021/07/07 04:39:09;;;;;;;8.23;7.40;;;18.70;1.00;;;;;;5100531;27;20439;-85
2021/07/07 04:41:37;;;;;;;7.23;6.63;;;18.80;1.00;;;;;;5097879;28;20463;-85
2021/07/07 04:44:06;;;;;;;7.57;6.77;;;18.80;1.00;;;;;;5098447;28;20400;-87
2021/07/07 04:46:34;;;;;;;6.53;6.00;;;18.90;1.00;;;;;;5097072;28;20431;-86
2021/07/07 04:49:01;;;;;;;12.07;6.60;;;18.80;1.00;;;;;;5098718;28;20424;-86
2021/07/07 04:51:30;;;;;;;8.40;7.60;;;18.80;1.00;;;;;;5113477;28;20454;-86
2021/07/07 04:53:57;;;;;;;9.37;6.57;;;18.70;1.00;;;;;;5099578;27;20462;-86
2021/07/07 04:56:24;;;;;;;5.50;5.00;;;18.70;1.00;;;;;;5091326;28;20553;-86
2021/07/07 04:58:51;;;;;;;5.57;5.07;;;18.60;1.00;;;;;;5087982;28;20431;-86
2021/07/07 05:01:18;;;;;;;10.33;6.50;;;18.50;1.00;;;;;;5087811;28;20523;-84
2021/07/07 05:03:46;;;;;;;8.50;7.10;;;18.50;1.00;;;;;;5078458;28;20449;-86
2021/07/07 05:06:13;;;;;;;5.07;4.63;;;18.60;1.00;;;;;;5078821;28;20435;-87
2021/07/07 05:08:40;;;;;;;7.90;5.47;;;18.50;1.00;;;;;;5086892;28;20427;-87
2021/07/07 05:11:07;;;;;;;4.77;4.27;;;18.50;1.00;;;;;;5076073;28;20977;-87
2021/07/07 05:13:34;;;;;;;5.53;4.93;;;18.50;1.00;;;;;;5071091;28;21022;-86
2021/07/07 05:16:01;;;;;;;5.50;4.83;;;18.40;1.00;;;;;;5087066;28;20443;-87
2021/07/07 05:18:28;;;;;;;5.50;5.03;;;18.30;1.00;;;;;;5083183;28;20436;-88
2021/07/07 05:20:57;;;;;;;5.13;4.73;;;18.30;1.00;;;;;;5078855;28;20492;-87
2021/07/07 05:23:24;;;;;;;6.93;5.27;;;18.30;1.00;;;;;;5081099;28;20435;-86
2021/07/07 05:25:51;;;;;;;11.70;5.23;;;18.30;1.00;;;;;;5079597;28;20551;-87
2021/07/07 05:28:20;;;;;;;5.93;5.20;;;18.30;1.00;;;;;;5082752;28;20427;-87
2021/07/07 05:30:47;;;;;;;9.40;5.27;;;18.30;1.00;;;;;;5083335;28;20513;-86
2021/07/07 05:33:19;;;;;;;7.27;5.43;;;18.20;1.00;;;;;;5084241;28;20447;-90
2021/07/07 05:35:53;;;;;;;5.70;4.67;;;18.20;1.00;;;;;;5087791;28;20990;-88
2021/07/07 05:38:28;;;;;;;7.40;5.40;;;18.30;1.00;;;;;;5080084;28;20546;-86
2021/07/07 05:40:55;;;;;;;6.40;5.80;;;18.30;1.00;;;;;;5083792;28;20436;-88
2021/07/07 05:43:25;;;;;;;6.50;5.90;;;18.40;1.00;;;;;;5094037;28;20438;-87
2021/07/07 05:45:52;;;;;;;7.10;5.13;;;18.40;1.00;;;;;;5085792;28;20440;-87
2021/07/07 05:48:19;;;;;;;7.20;6.50;;;18.40;1.00;;;;;;5082417;28;20443;-87
2021/07/07 05:50:47;;;;;;;7.97;7.27;;;18.40;1.00;;;;;;5084874;28;20470;-86
2021/07/07 05:53:14;;;;;;;7.37;6.23;;;18.50;1.00;;;;;;5095849;28;20451;-85
2021/07/07 05:55:46;;;;;;;7.47;6.77;;;18.50;1.00;;;;;;5088225;28;20442;-88
2021/07/07 06:00:55;;;;;;;7.23;6.33;;;18.50;1.00;;;;;;5082094;28;20441;-88
2021/07/07 06:03:22;;;;;;;10.10;6.80;;;18.50;1.00;;;;;;5082592;28;20412;-88
2021/07/07 06:05:49;;;;;;;5.97;5.47;;;18.50;1.00;;;;;;5081072;28;20606;-86
2021/07/07 06:08:16;;;;;;;7.43;5.83;;;18.50;1.00;;;;;;5091083;28;20440;-86
2021/07/07 06:10:49;;;;;;;9.83;7.17;;;18.50;1.00;;;;;;5093482;28;20487;-85
2021/07/07 06:13:17;;;;;;;11.33;7.50;;;18.50;1.00;;;;;;5085247;28;20460;-87
2021/07/07 06:15:44;;;;;;;7.10;6.40;;;18.50;1.00;;;;;;5089923;28;20415;-87
2021/07/07 06:18:11;;;;;;;11.37;10.10;;;18.50;1.00;;;;;;5113966;28;20391;-84
2021/07/07 06:20:40;;;;;;;9.70;6.60;;;18.50;1.00;;;;;;5116516;27;20426;-87
2021/07/07 06:23:11;;;;;;;9.00;7.17;;;18.50;1.00;;;;;;5101407;28;20422;-87
2021/07/07 06:25:43;;;;;;;6.83;6.13;;;18.50;1.00;;;;;;5100435;28;20429;-87
2021/07/07 06:28:18;;;;;;;6.83;6.23;;;18.50;1.00;;;;;;5117150;27;20417;-88
2021/07/07 06:30:50;;;;;;;7.93;6.87;;;18.50;1.00;;;;;;5110360;27;20425;-89
2021/07/07 06:33:21;;;;;;;7.57;6.87;;;18.50;1.00;;;;;;5107109;28;20395;-90
2021/07/07 06:35:50;;;;;;;7.77;6.70;;;18.50;1.00;;;;;;5101179;28;20431;-87
2021/07/07 06:38:23;;;;;;;8.27;7.57;;;18.50;1.00;;;;;;5101354;28;20415;-87
2021/07/07 06:40:51;;;;;;;9.70;8.80;;;18.50;1.00;;;;;;5401720;22;20476;-88
2021/07/07 06:43:21;;;;;;;8.50;7.70;;;18.50;1.00;;;;;;5116910;28;20221;-86
2021/07/07 06:45:49;;;;;;;14.47;7.57;;;18.60;1.00;;;;;;5111449;27;20427;-87
2021/07/07 06:48:16;;;;;;;7.00;6.30;;;18.60;1.00;;;;;;5112378;28;20487;-88
2021/07/07 06:50:45;;;;;;;6.30;5.70;;;18.60;1.00;;;;;;5108310;28;20429;-86
2021/07/07 06:53:12;;;;;;;7.50;5.90;;;18.50;1.00;;;;;;5097681;28;20456;-87
2021/07/07 06:55:40;;;;;;;6.70;5.60;;;18.40;1.00;;;;;;5105071;28;20434;-87
2021/07/07 06:58:12;;;;;;;5.23;4.83;;;18.30;1.00;;;;;;5101954;28;20559;-86
2021/07/07 07:00:40;;;;;;;6.97;6.43;;;18.30;1.00;;;;;;5111566;28;20479;-87
2021/07/07 07:03:08;;;;;;;10.30;8.37;;;18.30;1.00;;;;;;5110736;28;20421;-86
2021/07/07 07:05:35;;;;;;;5.93;5.43;;;18.30;1.00;;;;;;5102270;28;20545;-85
2021/07/07 07:08:03;;;;;;;8.03;5.70;;;18.30;1.00;;;;;;5095361;28;21117;-86
2021/07/07 07:10:30;;;;;;;7.33;6.43;;;18.30;1.00;;;;;;5121805;27;20435;-86
2021/07/07 07:12:57;;;;;;;8.30;7.40;;;18.30;1.00;;;;;;5106844;27;21136;-86
2021/07/07 07:15:24;;;;;;;7.70;7.00;;;18.30;1.00;;;;;;5098672;28;20478;-85
2021/07/07 07:17:53;;;;;;;7.93;7.13;;;18.30;1.00;;;;;;5094684;28;21689;-85
2021/07/07 07:20:20;;;;;;;9.60;8.70;;;18.40;1.00;;;;;;5096574;28;20477;-87
2021/07/07 07:22:46;;;;;;;7.17;6.57;;;18.40;1.00;;;;;;5105750;28;21555;-86
2021/07/07 07:25:14;;;;;;;7.47;5.83;;;18.40;1.00;;;;;;5112635;27;20426;-86
2021/07/07 07:27:41;;;;;;;9.10;6.63;;;18.40;1.00;;;;;;5111256;28;20390;-85
2021/07/07 07:30:10;;;;;;;7.60;6.93;;;18.40;1.00;;;;;;5126455;27;20440;-83
2021/07/07 07:32:37;;;;;;;8.13;6.90;;;18.40;1.00;;;;;;5131289;27;20428;-86
2021/07/07 07:35:06;;;;;;;8.03;7.10;;;18.50;1.00;;;;;;5113433;27;20491;-84
2021/07/07 07:37:39;;;;;;;8.03;7.23;;;18.50;1.00;;;;;;5105375;28;20499;-86
2021/07/07 07:40:10;;;;;;;7.90;7.10;;;18.40;1.00;;;;;;5116920;28;20472;-87
2021/07/07 07:42:39;;;;;;;6.83;6.10;;;18.50;1.00;;;;;;5126183;27;20448;-85
2021/07/07 07:45:07;;;;;;;9.30;8.50;;;18.50;1.00;;;;;;5116523;27;20446;-86
2021/07/07 07:47:34;;;;;;;9.70;8.37;;;18.50;1.00;;;;;;5118423;27;20399;-85
2021/07/07 07:50:01;;;;;;;8.20;7.50;;;18.50;1.00;;;;;;5120480;27;20443;-85
2021/07/07 07:52:29;;;;;;;8.17;7.13;;;18.60;1.00;;;;;;5120001;27;20424;-85
2021/07/07 07:54:59;;;;;;;7.87;7.07;;;18.60;1.00;;;;;;5133368;27;20476;-85
2021/07/07 07:57:25;;;;;;;8.00;5.83;;;18.60;1.00;;;;;;5121988;27;20592;-85
2021/07/07 07:59:52;;;;;;;6.80;6.10;;;18.50;1.00;;;;;;5124086;27;20407;-85
2021/07/07 08:02:19;;;;;;;6.93;6.27;;;18.50;1.00;;;;;;5118918;27;20391;-85
2021/07/07 08:04:46;;;;;;;6.27;5.67;;;18.50;1.00;;;;;;5120384;27;20471;-86
2021/07/07 08:07:12;;;;;;;7.93;7.00;;;18.50;1.00;;;;;;5120618;27;20395;-87
2021/07/07 08:09:40;;;;;;;8.93;8.03;;;18.50;1.00;;;;;;5117184;27;20427;-86
2021/07/07 08:12:09;;;;;;;7.17;6.57;;;18.50;1.00;;;;;;5121384;28;20442;-85
2021/07/07 08:14:36;;;;;;;10.27;8.20;;;18.50;1.00;;;;;;5114350;28;20423;-86
2021/07/07 08:17:03;;;;;;;8.10;6.23;;;18.50;1.00;;;;;;5118301;27;20446;-86
2021/07/07 08:19:30;;;;;;;7.33;6.60;;;18.50;1.00;;;;;;5103000;28;20454;-82
2021/07/07 08:21:56;;;;;;;8.90;8.10;;;18.50;1.00;;;;;;5107319;28;20454;-84
2021/07/07 08:24:23;;;;;;;7.63;6.87;;;18.50;1.00;;;;;;5098155;28;20565;-82
2021/07/07 08:26:51;;;;;;;8.03;7.30;;;18.50;1.00;;;;;;5088785;28;20424;-83
2021/07/07 08:29:17;;;;;;;6.97;6.37;;;18.50;1.00;;;;;;5089861;28;20447;-84
2021/07/07 08:31:44;;;;;;;6.80;6.20;;;18.50;1.00;;;;;;5095324;28;20482;-83
2021/07/07 08:34:11;;;;;;;7.70;7.10;;;18.50;1.00;;;;;;5095292;28;20446;-80
2021/07/07 08:36:38;;;;;;;7.00;6.30;;;18.50;1.00;;;;;;5097224;28;20437;-81
2021/07/07 08:39:05;;;;;;;6.90;6.30;;;18.60;1.00;;;;;;5092485;27;20438;-84
2021/07/07 08:41:33;;;;;;;8.70;6.00;;;18.60;1.00;;;;;;5098632;28;20489;-83
2021/07/07 08:44:01;;;;;;;5.93;5.30;;;18.60;1.00;;;;;;5096924;28;20547;-82
2021/07/07 08:46:28;;;;;;;5.87;5.30;;;18.60;1.00;;;;;;5095656;28;20427;-81
2021/07/07 08:48:55;;;;;;;14.10;10.93;;;18.60;1.00;;;;;;5101660;28;20532;-81
2021/07/07 08:51:22;;;;;;;6.03;5.43;;;18.60;1.00;;;;;;5094633;28;20466;-81
2021/07/07 08:53:49;;;;;;;5.67;5.17;;;18.50;1.00;;;;;;5095500;28;20454;-85
2021/07/07 08:56:16;;;;;;;6.27;5.77;;;18.50;1.00;;;;;;5102594;28;21079;-86
2021/07/07 08:58:43;;;;;;;6.63;5.90;;;18.50;1.00;;;;;;5100118;28;21214;-86
2021/07/07 09:01:12;;;;;;;6.67;5.97;;;18.60;1.00;;;;;;5100882;28;20529;-85
2021/07/07 09:03:44;;;;;;;8.10;5.13;;;18.50;1.00;;;;;;5106210;28;20484;-87
2021/07/07 09:06:12;;;;;;;5.70;4.90;;;18.50;1.00;;;;;;5097922;28;20434;-85
2021/07/07 09:08:42;;;;;;;5.90;4.67;;;18.40;1.00;;;;;;5094491;28;21348;-87
2021/07/07 09:11:18;;;;;;;5.80;4.13;;;18.40;1.00;;;;;;5105392;28;20417;-86
2021/07/07 09:13:46;;;;;;;4.00;3.40;;;18.40;1.00;;;;;;5103694;28;20423;-87
2021/07/07 09:16:15;;;;;;;4.00;3.70;;;18.40;1.00;;;;;;5096089;28;20422;-86
2021/07/07 09:18:42;;;;;;;4.37;3.90;;;18.40;1.00;;;;;;5092683;28;20992;-83
2021/07/07 09:21:26;;;;;;;5.27;4.50;;;18.40;1.00;;;;;;5096431;28;20526;-85
2021/07/07 09:23:53;;;;;;;5.03;4.63;;;18.30;1.00;;;;;;5093712;28;20488;-84
2021/07/07 09:26:28;;;;;;;4.33;3.73;;;18.40;1.00;;;;;;5098783;28;21305;-84
2021/07/07 09:28:55;;;;;;;4.33;3.30;;;18.40;1.00;;;;;;5090296;28;20557;-84
2021/07/07 09:31:37;;;;;;;8.07;7.37;;;18.40;1.00;;;;;;5099869;27;20542;-84
2021/07/07 09:34:12;;;;;;;6.57;5.67;;;18.40;1.00;;;;;;5100265;28;20471;-86
2021/07/07 09:36:42;;;;;;;7.00;4.87;;;18.50;1.00;;;;;;5094718;28;20442;-82
2021/07/07 09:39:09;;;;;;;5.50;5.03;;;18.50;1.00;;;;;;5108636;28;20545;-82
2021/07/07 09:41:36;;;;;;;5.23;4.00;;;18.60;1.00;;;;;;5108590;28;20462;-86
2021/07/07 09:44:04;;;;;;;4.33;3.83;;;18.70;1.00;;;;;;5104540;28;20557;-86
2021/07/07 09:46:31;;;;;;;4.23;3.90;;;18.60;1.00;;;;;;5102351;28;20450;-86
2021/07/07 09:48:59;;;;;;;7.27;6.60;;;18.60;1.00;;;;;;5098649;28;20517;-86
2021/07/07 09:51:25;;;;;;;8.13;7.20;;;18.70;1.00;;;;;;5100914;28;20462;-86
2021/07/07 09:53:53;;;;;;;6.33;5.83;;;18.70;1.00;;;;;;5091641;28;20473;-86
2021/07/07 09:56:19;;;;;;;7.93;6.97;;;18.80;1.00;;;;;;5099488;28;21189;-82
2021/07/07 09:58:46;;;;;;;7.43;6.20;;;18.80;1.00;;;;;;5096156;28;20442;-85
2021/07/07 10:01:13;;;;;;;8.43;7.10;;;18.90;1.00;;;;;;5094619;28;20442;-82
2021/07/07 10:03:41;;;;;;;6.80;6.20;;;18.90;1.00;;;;;;5093196;28;20545;-84
2021/07/07 10:06:09;;;;;;;6.33;5.70;;;18.80;1.00;;;;;;5096583;28;20441;-80
2021/07/07 10:08:37;;;;;;;6.53;5.87;;;18.90;1.00;;;;;;5095378;28;20422;-85
2021/07/07 10:11:04;;;;;;;6.00;5.40;;;18.80;1.00;;;;;;5102444;28;20452;-83
2021/07/07 10:13:31;;;;;;;7.20;5.57;;;18.80;1.00;;;;;;5104064;28;20451;-82
2021/07/07 10:15:58;;;;;;;5.67;4.90;;;18.70;1.00;;;;;;5109752;27;20411;-82
2021/07/07 10:18:25;;;;;;;6.50;5.83;;;18.70;1.00;;;;;;5112781;27;20411;-84
2021/07/07 10:20:53;;;;;;;5.30;4.90;;;18.90;1.00;;;;;;5117030;28;20415;-81
2021/07/07 10:23:22;;;;;;;42.17;37.80;;;18.90;1.00;;;;;;5113789;28;20411;-82
2021/07/07 10:25:49;;;;;;;6.33;5.40;;;18.90;1.00;;;;;;5114989;27;20435;-83
2021/07/07 10:28:17;;;;;;;10.70;6.67;;;19.00;1.00;;;;;;5106963;27;20423;-81
2021/07/07 10:30:56;;;;;;;7.20;5.80;;;19.10;1.00;;;;;;5114108;27;20438;-81
2021/07/07 10:33:24;;;;;;;8.33;3.73;;;19.20;1.00;;;;;;5115267;27;20440;-84
2021/07/07 10:36:12;;;;;;;7.20;5.27;;;19.30;1.00;;;;;;5107353;28;20442;-82
2021/07/07 10:38:40;;;;;;;5.73;5.10;;;19.40;1.00;;;;;;5117593;27;20966;-81
2021/07/07 10:41:07;;;;;;;4.67;4.20;;;19.50;1.00;;;;;;5109988;28;20474;-82
2021/07/07 10:43:43;;;;;;;6.27;4.93;;;19.50;1.00;;;;;;5118081;28;20629;-84
2021/07/07 10:46:12;;;;;;;4.73;4.27;;;19.50;1.00;;;;;;5110895;27;20403;-81
2021/07/07 10:48:39;;;;;;;4.83;4.40;;;19.50;1.00;;;;;;5112357;28;21542;-80
2021/07/07 10:51:24;;;;;;;5.03;3.97;;;19.40;1.00;;;;;;5111463;27;20523;-79
2021/07/07 10:53:55;;;;;;;9.80;9.00;;;19.40;1.00;;;;;;5109560;27;20435;-81
2021/07/07 10:56:46;;;;;;;5.73;4.50;;;19.40;1.00;;;;;;5120505;27;20413;-81
2021/07/07 10:59:31;;;;;;;5.60;5.03;;;19.40;1.00;;;;;;5113073;27;20539;-80
2021/07/07 11:02:06;;;;;;;6.20;4.30;;;19.50;1.00;;;;;;5118317;27;20405;-80
2021/07/07 11:04:35;;;;;;;5.43;3.87;;;19.50;1.00;;;;;;5110635;27;20506;-81
2021/07/07 11:07:24;;;;;;;4.60;4.20;;;19.50;1.00;;;;;;5111322;28;20408;-84
2021/07/07 11:09:56;;;;;;;5.70;4.97;;;19.60;1.00;;;;;;5115496;28;20430;-80
2021/07/07 11:12:27;;;;;;;5.70;4.47;;;19.60;1.00;;;;;;5106447;28;21310;-82
2021/07/07 11:15:02;;;;;;;7.37;5.67;;;19.60;1.00;;;;;;5106653;28;20427;-80
2021/07/07 11:17:34;;;;;;;4.13;3.20;;;19.60;1.00;;;;;;5108482;27;20414;-79
2021/07/07 11:20:05;;;;;;;7.07;4.53;;;19.60;1.00;;;;;;5111986;27;20412;-81
2021/07/07 11:22:31;;;;;;;4.73;4.33;;;19.70;1.00;;;;;;5109834;27;20758;-81
2021/07/07 11:25:03;;;;;;;4.93;4.53;;;19.80;1.00;;;;;;5114254;27;20450;-80
2021/07/07 11:27:30;;;;;;;5.80;4.07;;;19.80;1.00;;;;;;5110806;28;20524;-80
2021/07/07 11:29:57;;;;;;;5.90;5.37;;;20.00;1.00;;;;;;5107715;27;21259;-80
2021/07/07 11:32:30;;;;;;;5.07;4.57;;;20.10;1.00;;;;;;5103864;28;20436;-82
2021/07/07 11:34:59;;;;;;;5.00;4.50;;;20.10;1.00;;;;;;5105224;28;20491;-82
2021/07/07 11:37:28;;;;;;;8.70;7.83;;;20.00;1.00;;;;;;5103795;28;20440;-84
2021/07/07 11:40:09;;;;;;;5.57;4.60;;;20.10;1.00;;;;;;5096807;28;20467;-81
2021/07/07 11:43:00;;;;;;;5.20;4.27;;;20.10;1.00;;;;;;5097089;28;20495;-82
2021/07/07 11:45:29;;;;;;;5.27;4.77;;;20.30;1.00;;;;;;5097561;28;20457;-81
2021/07/07 11:48:00;;;;;;;4.80;4.40;;;20.40;1.00;;;;;;5096409;27;20451;-85
2021/07/07 11:50:28;;;;;;;4.00;3.70;;;20.50;1.00;;;;;;5096381;28;21373;-83
2021/07/07 11:53:01;;;;;;;5.27;4.07;;;20.70;1.00;;;;;;5100990;27;20408;-81
2021/07/07 11:56:04;;;;;;;5.77;5.00;;;20.70;1.00;;;;;;5095001;28;20446;-83
2021/07/07 11:58:33;;;;;;;7.60;4.60;;;20.80;1.00;;;;;;5095182;28;20460;-80
2021/07/07 12:01:02;;;;;;;4.40;4.00;;;20.90;1.00;;;;;;5099439;28;20511;-81
2021/07/07 12:03:29;;;;;;;6.20;4.73;;;20.80;1.00;;;;;;5092540;28;20464;-80
2021/07/07 12:06:00;;;;;;;3.37;3.07;;;20.90;1.00;;;;;;5104831;28;20448;-83
2021/07/07 12:08:28;;;;;;;4.13;3.73;;;21.10;1.00;;;;;;5091654;28;20453;-81
2021/07/07 12:11:06;;;;;;;7.87;4.40;;;21.40;1.00;;;;;;5100419;28;20438;-84
2021/07/07 12:13:34;;;;;;;2.70;2.50;;;21.70;1.00;;;;;;5103528;28;20478;-82
2021/07/07 12:16:20;;;;;;;5.60;3.40;;;21.90;1.00;;;;;;5095868;28;20485;-81
2021/07/07 12:18:49;;;;;;;6.20;3.40;;;22.50;1.00;;;;;;5103449;28;20470;-80
2021/07/07 12:21:29;;;;;;;5.57;3.40;;;23.00;1.00;;;;;;5094740;28;20508;-79
2021/07/07 12:23:58;;;;;;;4.40;3.17;;;23.70;1.00;;;;;;5099771;28;21060;-82
2021/07/07 12:26:27;;;;;;;4.10;2.40;;;24.50;1.00;;;;;;5100594;28;20491;-82
2021/07/07 12:28:57;;;;;;;2.77;2.20;;;26.00;1.00;;;;;;5097266;28;20482;-83
2021/07/07 12:31:27;;;;;;;6.00;3.10;;;27.80;1.00;;;;;;5098988;28;20412;-83
2021/07/07 12:33:55;;;;;;;3.80;3.50;;;29.10;1.00;;;;;;5100494;28;20481;-80
2021/07/07 12:36:28;;;;;;;5.33;2.10;;;29.90;1.00;;;;;;5110826;28;20468;-80
2021/07/07 12:38:57;;;;;;;2.23;2.03;;;30.00;1.00;;;;;;5102384;28;20432;-82
2021/07/07 12:41:33;;;;;;;2.20;1.80;;;29.50;1.00;;;;;;5107307;28;20481;-82
2021/07/07 12:44:09;;;;;;;2.10;1.80;;;28.50;1.00;;;;;;5107960;28;20617;-81
2021/07/07 12:46:51;;;;;;;2.60;1.77;;;27.70;1.00;;;;;;5102847;28;20462;-85
2021/07/07 12:49:22;;;;;;;4.60;2.23;;;27.60;1.00;;;;;;5097750;28;20441;-83
2021/07/07 12:51:50;;;;;;;3.03;2.73;;;27.90;1.00;;;;;;5100514;27;20459;-83
2021/07/07 12:54:21;;;;;;;1.77;1.60;;;28.20;1.00;;;;;;5095816;28;20471;-83
2021/07/07 12:57:00;;;;;;;2.40;2.00;;;28.40;1.00;;;;;;5100111;27;20475;-83
2021/07/07 12:59:27;;;;;;;2.63;2.00;;;28.00;1.00;;;;;;5096157;28;20418;-81
2021/07/07 13:02:02;;;;;;;2.17;1.97;;;27.50;1.00;;;;;;5092912;28;20610;-82
2021/07/07 13:04:29;;;;;;;3.40;2.00;;;27.30;1.00;;;;;;5102371;28;20497;-83
2021/07/07 13:07:05;;;;;;;3.13;1.43;;;27.30;1.00;;;;;;5095164;28;20511;-82